createdAt,value
2019-03-30T00:00:26.052Z,1018.77
2019-03-30T00:01:26.067Z,1018.71
2019-03-30T00:02:26.033Z,1018.76
2019-03-30T00:03:26.016Z,1018.77
2019-03-30T00:04:26.002Z,1018.81
2019-03-30T00:05:25.989Z,1018.74
2019-03-30T00:06:25.999Z,1018.74
2019-03-30T00:07:25.964Z,1018.74
2019-03-30T00:08:25.953Z,1018.73
2019-03-30T00:09:25.945Z,1018.68
2019-03-30T00:10:25.945Z,1018.73
2019-03-30T00:11:25.983Z,1018.69
2019-03-30T00:12:25.907Z,1018.70
2019-03-30T00:13:25.900Z,1018.69
2019-03-30T00:14:25.884Z,1018.70
2019-03-30T00:15:25.881Z,1018.63
2019-03-30T00:16:25.886Z,1018.69
2019-03-30T00:17:25.851Z,1018.70
2019-03-30T00:18:25.844Z,1018.67
2019-03-30T00:19:34.871Z,1018.70
2019-03-30T00:20:26.828Z,1018.66
2019-03-30T00:21:25.834Z,1018.68
2019-03-30T00:22:25.796Z,1018.62
2019-03-30T00:23:25.782Z,1018.65
2019-03-30T00:24:25.773Z,1018.64
2019-03-30T00:25:25.767Z,1018.60
2019-03-30T00:26:25.776Z,1018.62
2019-03-30T00:27:25.742Z,1018.59
2019-03-30T00:28:25.725Z,1018.62
2019-03-30T00:29:25.720Z,1018.60
2019-03-30T00:30:25.713Z,1018.57
2019-03-30T00:31:25.723Z,1018.62
2019-03-30T00:32:25.693Z,1018.66
2019-03-30T00:33:25.674Z,1018.65
2019-03-30T00:34:25.658Z,1018.60
2019-03-30T00:35:25.648Z,1018.58
2019-03-30T00:36:25.664Z,1018.57
2019-03-30T00:37:25.638Z,1018.60
2019-03-30T00:38:25.617Z,1018.57
2019-03-30T00:39:25.603Z,1018.56
2019-03-30T00:40:25.593Z,1018.57
2019-03-30T00:41:25.582Z,1018.52
2019-03-30T00:42:25.599Z,1018.50
2019-03-30T00:43:25.555Z,1018.51
2019-03-30T00:44:25.584Z,1018.47
2019-03-30T00:45:25.550Z,1018.49
2019-03-30T00:46:25.526Z,1018.51
2019-03-30T00:47:25.606Z,1018.52
2019-03-30T00:48:25.506Z,1018.49
2019-03-30T00:49:25.501Z,1018.45
2019-03-30T00:50:25.484Z,1018.43
2019-03-30T00:51:25.468Z,1018.43
2019-03-30T00:52:25.483Z,1018.41
2019-03-30T00:53:25.452Z,1018.38
2019-03-30T00:54:25.455Z,1018.36
2019-03-30T00:55:25.423Z,1018.37
2019-03-30T00:56:25.438Z,1018.33
2019-03-30T00:57:25.424Z,1018.36
2019-03-30T00:58:25.707Z,1018.39
2019-03-30T00:59:25.384Z,1018.32
2019-03-30T01:00:25.363Z,1018.36
2019-03-30T01:01:25.371Z,1018.34
2019-03-30T01:02:25.378Z,1018.39
2019-03-30T01:03:25.340Z,1018.34
2019-03-30T01:04:25.325Z,1018.29
2019-03-30T01:05:25.311Z,1018.30
2019-03-30T01:06:25.301Z,1018.28
2019-03-30T01:07:25.315Z,1018.29
2019-03-30T01:08:25.279Z,1018.29
2019-03-30T01:09:25.265Z,1018.30
2019-03-30T01:10:25.257Z,1018.26
2019-03-30T01:11:25.243Z,1018.27
2019-03-30T01:12:25.258Z,1018.25
2019-03-30T01:13:25.223Z,1018.26
2019-03-30T01:14:25.209Z,1018.26
2019-03-30T01:15:25.198Z,1018.26
2019-03-30T01:16:25.186Z,1018.25
2019-03-30T01:17:25.206Z,1018.24
2019-03-30T01:18:25.162Z,1018.23
2019-03-30T01:19:25.157Z,1018.23
2019-03-30T01:20:25.138Z,1018.21
2019-03-30T01:21:25.137Z,1018.21
2019-03-30T01:22:25.165Z,1018.19
2019-03-30T01:23:25.119Z,1018.18
2019-03-30T01:24:25.110Z,1018.18
2019-03-30T01:25:25.086Z,1018.20
2019-03-30T01:26:25.072Z,1018.18
2019-03-30T01:27:25.083Z,1018.23
2019-03-30T01:28:25.047Z,1018.18
2019-03-30T01:29:25.041Z,1018.19
2019-03-30T01:30:25.031Z,1018.20
2019-03-30T01:31:25.041Z,1018.20
2019-03-30T01:32:25.036Z,1018.17
2019-03-30T01:33:24.998Z,1018.13
2019-03-30T01:34:24.989Z,1018.13
2019-03-30T01:35:25.188Z,1018.13
2019-03-30T01:36:24.991Z,1018.11
2019-03-30T01:37:24.974Z,1018.11
2019-03-30T01:38:24.942Z,1018.09
2019-03-30T01:39:24.929Z,1018.12
2019-03-30T01:40:24.918Z,1018.09
2019-03-30T01:41:24.902Z,1018.13
2019-03-30T01:42:24.932Z,1018.14
2019-03-30T01:43:24.890Z,1018.15
2019-03-30T01:44:24.873Z,1018.11
2019-03-30T01:45:24.882Z,1018.11
2019-03-30T01:46:24.915Z,1018.03
2019-03-30T01:47:24.870Z,1018.08
2019-03-30T01:48:24.825Z,1018.05
2019-03-30T01:49:24.812Z,1018.09
2019-03-30T01:50:24.816Z,1018.05
2019-03-30T01:51:24.792Z,1018.07
2019-03-30T01:52:24.784Z,1018.07
2019-03-30T01:53:24.798Z,1018.01
2019-03-30T01:54:24.766Z,1018.00
2019-03-30T01:55:24.750Z,1017.99
2019-03-30T01:56:24.737Z,1017.98
2019-03-30T01:57:24.726Z,1017.98
2019-03-30T01:58:24.743Z,1017.98
2019-03-30T01:59:24.709Z,1017.96
2019-03-30T02:00:24.692Z,1017.97
2019-03-30T02:01:24.678Z,1017.95
2019-03-30T02:02:24.670Z,1017.87
2019-03-30T02:03:24.685Z,1017.90
2019-03-30T02:04:24.651Z,1017.88
2019-03-30T02:05:24.643Z,1017.86
2019-03-30T02:06:24.624Z,1017.85
2019-03-30T02:07:24.619Z,1017.78
2019-03-30T02:08:24.628Z,1017.88
2019-03-30T02:09:24.597Z,1017.84
2019-03-30T02:10:24.576Z,1017.80
2019-03-30T02:11:24.567Z,1017.80
2019-03-30T02:12:24.562Z,1017.85
2019-03-30T02:13:24.571Z,1017.79
2019-03-30T02:14:24.543Z,1017.85
2019-03-30T02:15:24.530Z,1017.81
2019-03-30T02:16:24.511Z,1017.81
2019-03-30T02:17:24.500Z,1017.82
2019-03-30T02:18:24.520Z,1017.83
2019-03-30T02:19:24.474Z,1017.80
2019-03-30T02:20:30.646Z,1017.83
2019-03-30T02:21:25.456Z,1017.86
2019-03-30T02:22:24.452Z,1017.82
2019-03-30T02:23:24.458Z,1017.82
2019-03-30T02:24:24.424Z,1017.83
2019-03-30T02:25:24.423Z,1017.77
2019-03-30T02:26:24.398Z,1017.79
2019-03-30T02:27:24.385Z,1017.84
2019-03-30T02:28:24.400Z,1017.83
2019-03-30T02:29:24.368Z,1017.84
2019-03-30T02:30:24.356Z,1017.86
2019-03-30T02:31:24.347Z,1017.87
2019-03-30T02:32:24.345Z,1017.89
2019-03-30T02:33:24.346Z,1017.83
2019-03-30T02:34:24.308Z,1017.85
2019-03-30T02:35:26.509Z,1017.86
2019-03-30T02:36:24.290Z,1017.85
2019-03-30T02:37:24.274Z,1017.85
2019-03-30T02:38:24.287Z,1017.93
2019-03-30T02:39:24.255Z,1017.87
2019-03-30T02:40:24.257Z,1017.88
2019-03-30T02:41:24.239Z,1017.82
2019-03-30T02:42:24.223Z,1017.84
2019-03-30T02:43:24.232Z,1017.89
2019-03-30T02:44:24.206Z,1017.91
2019-03-30T02:45:24.190Z,1017.90
2019-03-30T02:46:24.178Z,1017.89
2019-03-30T02:47:24.174Z,1017.89
2019-03-30T02:48:24.178Z,1017.87
2019-03-30T02:49:24.147Z,1017.86
2019-03-30T02:50:24.136Z,1017.82
2019-03-30T02:51:24.122Z,1017.79
2019-03-30T02:52:24.107Z,1017.82
2019-03-30T02:53:24.098Z,1017.77
2019-03-30T02:54:24.119Z,1017.83
2019-03-30T02:55:24.075Z,1017.84
2019-03-30T02:56:24.081Z,1017.85
2019-03-30T02:57:24.078Z,1017.83
2019-03-30T02:58:24.053Z,1017.84
2019-03-30T02:59:24.066Z,1017.79
2019-03-30T03:00:24.186Z,1017.78
2019-03-30T03:01:24.006Z,1017.79
2019-03-30T03:02:24.004Z,1017.80
2019-03-30T03:03:24.018Z,1017.80
2019-03-30T03:04:24.000Z,1017.83
2019-03-30T03:05:23.965Z,1017.78
2019-03-30T03:06:23.957Z,1017.71
2019-03-30T03:07:23.946Z,1017.76
2019-03-30T03:08:23.941Z,1017.75
2019-03-30T03:09:23.966Z,1017.77
2019-03-30T03:10:23.901Z,1017.71
2019-03-30T03:11:23.895Z,1017.70
2019-03-30T03:12:23.885Z,1017.61
2019-03-30T03:13:23.868Z,1017.66
2019-03-30T03:14:23.893Z,1017.66
2019-03-30T03:15:23.845Z,1017.65
2019-03-30T03:16:27.377Z,1017.61
2019-03-30T03:17:23.830Z,1017.59
2019-03-30T03:18:23.820Z,1017.57
2019-03-30T03:19:23.826Z,1017.57
2019-03-30T03:20:23.815Z,1017.56
2019-03-30T03:21:23.780Z,1017.59
2019-03-30T03:22:23.774Z,1017.53
2019-03-30T03:23:23.764Z,1017.56
2019-03-30T03:24:23.753Z,1017.54
2019-03-30T03:25:23.766Z,1017.51
2019-03-30T03:26:23.725Z,1017.52
2019-03-30T03:27:23.715Z,1017.46
2019-03-30T03:28:23.717Z,1017.53
2019-03-30T03:29:23.691Z,1017.46
2019-03-30T03:30:23.733Z,1017.48
2019-03-30T03:31:23.701Z,1017.50
2019-03-30T03:32:23.661Z,1017.48
2019-03-30T03:33:23.658Z,1017.47
2019-03-30T03:34:23.632Z,1017.48
2019-03-30T03:35:23.647Z,1017.47
2019-03-30T03:36:23.617Z,1017.52
2019-03-30T03:37:23.610Z,1017.48
2019-03-30T03:38:23.593Z,1017.51
2019-03-30T03:39:23.579Z,1017.44
2019-03-30T03:40:23.602Z,1017.49
2019-03-30T03:41:23.560Z,1017.52
2019-03-30T03:42:23.553Z,1017.48
2019-03-30T03:43:23.540Z,1017.48
2019-03-30T03:44:23.521Z,1017.47
2019-03-30T03:45:23.535Z,1017.45
2019-03-30T03:46:23.505Z,1017.49
2019-03-30T03:47:23.502Z,1017.44
2019-03-30T03:48:23.477Z,1017.50
2019-03-30T03:49:23.462Z,1017.44
2019-03-30T03:50:23.486Z,1017.42
2019-03-30T03:51:26.046Z,1017.42
2019-03-30T03:52:23.438Z,1017.43
2019-03-30T03:53:23.426Z,1017.39
2019-03-30T03:54:23.411Z,1017.41
2019-03-30T03:55:23.429Z,1017.41
2019-03-30T03:56:23.395Z,1017.40
2019-03-30T03:57:23.377Z,1017.41
2019-03-30T03:58:23.367Z,1017.41
2019-03-30T03:59:23.361Z,1017.38
2019-03-30T04:00:23.371Z,1017.38
2019-03-30T04:01:23.335Z,1017.44
2019-03-30T04:02:23.343Z,1017.41
2019-03-30T04:03:23.314Z,1017.34
2019-03-30T04:04:23.300Z,1017.38
2019-03-30T04:05:23.316Z,1017.35
2019-03-30T04:06:23.274Z,1017.37
2019-03-30T04:07:23.268Z,1017.35
2019-03-30T04:08:23.254Z,1017.32
2019-03-30T04:09:23.247Z,1017.33
2019-03-30T04:10:23.256Z,1017.33
2019-03-30T04:11:23.250Z,1017.29
2019-03-30T04:12:23.210Z,1017.29
2019-03-30T04:13:23.199Z,1017.31
2019-03-30T04:14:23.199Z,1017.29
2019-03-30T04:15:23.175Z,1017.27
2019-03-30T04:16:23.190Z,1017.24
2019-03-30T04:17:23.166Z,1017.24
2019-03-30T04:18:23.140Z,1017.23
2019-03-30T04:19:23.135Z,1017.23
2019-03-30T04:20:23.117Z,1017.22
2019-03-30T04:21:23.129Z,1017.22
2019-03-30T04:22:23.117Z,1017.22
2019-03-30T04:23:23.079Z,1017.23
2019-03-30T04:24:23.089Z,1017.21
2019-03-30T04:25:23.090Z,1017.23
2019-03-30T04:26:23.076Z,1017.23
2019-03-30T04:27:23.038Z,1017.29
2019-03-30T04:28:23.049Z,1017.31
2019-03-30T04:29:23.022Z,1017.27
2019-03-30T04:30:23.012Z,1017.27
2019-03-30T04:31:23.020Z,1017.27
2019-03-30T04:32:22.994Z,1017.26
2019-03-30T04:33:22.973Z,1017.20
2019-03-30T04:34:22.974Z,1017.20
2019-03-30T04:35:22.949Z,1017.18
2019-03-30T04:36:22.988Z,1017.17
2019-03-30T04:37:22.929Z,1017.27
2019-03-30T04:38:22.912Z,1017.21
2019-03-30T04:39:22.914Z,1017.20
2019-03-30T04:40:22.891Z,1017.19
2019-03-30T04:41:22.911Z,1017.13
2019-03-30T04:42:22.875Z,1017.11
2019-03-30T04:43:22.866Z,1017.18
2019-03-30T04:44:22.845Z,1017.13
2019-03-30T04:45:22.838Z,1017.14
2019-03-30T04:46:22.860Z,1017.16
2019-03-30T04:47:22.812Z,1017.13
2019-03-30T04:48:22.801Z,1017.16
2019-03-30T04:49:22.793Z,1017.17
2019-03-30T04:50:22.778Z,1017.11
2019-03-30T04:51:22.792Z,1017.13
2019-03-30T04:52:22.760Z,1017.11
2019-03-30T04:53:22.745Z,1017.16
2019-03-30T04:54:22.738Z,1017.06
2019-03-30T04:55:22.721Z,1017.04
2019-03-30T04:56:22.746Z,1017.05
2019-03-30T04:57:22.703Z,1017.09
2019-03-30T04:58:22.686Z,1017.02
2019-03-30T04:59:22.678Z,1017.09
2019-03-30T05:00:22.671Z,1017.01
2019-03-30T05:01:22.684Z,1017.03
2019-03-30T05:02:22.645Z,1017.10
2019-03-30T05:03:22.631Z,1017.08
2019-03-30T05:04:22.625Z,1017.09
2019-03-30T05:05:22.609Z,1017.06
2019-03-30T05:06:22.627Z,1017.07
2019-03-30T05:07:22.590Z,1017.06
2019-03-30T05:08:22.578Z,1017.02
2019-03-30T05:09:22.568Z,1016.97
2019-03-30T05:10:22.560Z,1016.98
2019-03-30T05:11:22.570Z,1017.02
2019-03-30T05:12:22.543Z,1017.00
2019-03-30T05:13:22.525Z,1016.97
2019-03-30T05:14:22.515Z,1017.01
2019-03-30T05:15:22.498Z,1017.00
2019-03-30T05:16:22.494Z,1017.00
2019-03-30T05:17:22.502Z,1017.02
2019-03-30T05:18:22.467Z,1017.00
2019-03-30T05:19:22.455Z,1016.98
2019-03-30T05:20:22.466Z,1016.96
2019-03-30T05:21:22.430Z,1016.94
2019-03-30T05:22:22.444Z,1016.93
2019-03-30T05:23:22.411Z,1016.90
2019-03-30T05:24:22.400Z,1016.95
2019-03-30T05:25:22.386Z,1016.90
2019-03-30T05:26:22.379Z,1016.89
2019-03-30T05:27:22.390Z,1016.92
2019-03-30T05:28:22.358Z,1016.96
2019-03-30T05:29:22.340Z,1016.87
2019-03-30T05:30:22.347Z,1016.87
2019-03-30T05:31:22.318Z,1016.94
2019-03-30T05:32:22.337Z,1016.94
2019-03-30T05:33:22.305Z,1016.99
2019-03-30T05:34:22.286Z,1016.94
2019-03-30T05:35:22.274Z,1016.97
2019-03-30T05:36:22.267Z,1016.96
2019-03-30T05:37:22.275Z,1016.97
2019-03-30T05:38:22.245Z,1016.97
2019-03-30T05:39:22.226Z,1016.95
2019-03-30T05:40:22.216Z,1016.96
2019-03-30T05:41:22.206Z,1016.96
2019-03-30T05:42:22.227Z,1016.92
2019-03-30T05:43:22.187Z,1016.98
2019-03-30T05:44:22.176Z,1016.93
2019-03-30T05:45:22.160Z,1016.97
2019-03-30T05:46:22.156Z,1016.94
2019-03-30T05:47:22.164Z,1016.91
2019-03-30T05:48:22.130Z,1016.96
2019-03-30T05:49:22.115Z,1016.97
2019-03-30T05:50:22.106Z,1016.96
2019-03-30T05:51:22.099Z,1016.95
2019-03-30T05:52:26.620Z,1016.95
2019-03-30T05:53:23.102Z,1016.93
2019-03-30T05:54:22.060Z,1016.92
2019-03-30T05:55:22.048Z,1016.98
2019-03-30T05:56:22.042Z,1016.96
2019-03-30T05:57:22.028Z,1016.96
2019-03-30T05:58:22.046Z,1016.92
2019-03-30T05:59:22.006Z,1016.97
2019-03-30T06:00:21.994Z,1017.01
2019-03-30T06:01:21.989Z,1017.00
2019-03-30T06:02:21.972Z,1016.93
2019-03-30T06:03:21.985Z,1016.97
2019-03-30T06:04:21.952Z,1017.00
2019-03-30T06:05:21.947Z,1017.01
2019-03-30T06:06:21.930Z,1016.98
2019-03-30T06:07:21.916Z,1016.96
2019-03-30T06:08:21.943Z,1017.00
2019-03-30T06:09:21.891Z,1017.04
2019-03-30T06:10:21.880Z,1017.00
2019-03-30T06:11:21.870Z,1016.95
2019-03-30T06:12:21.858Z,1016.96
2019-03-30T06:13:21.873Z,1016.95
2019-03-30T06:14:21.839Z,1017.00
2019-03-30T06:15:21.829Z,1016.97
2019-03-30T06:16:21.814Z,1016.99
2019-03-30T06:17:21.805Z,1016.99
2019-03-30T06:18:21.818Z,1016.98
2019-03-30T06:19:21.782Z,1016.97
2019-03-30T06:20:21.768Z,1016.91
2019-03-30T06:21:21.779Z,1016.97
2019-03-30T06:22:21.744Z,1016.94
2019-03-30T06:23:21.761Z,1016.93
2019-03-30T06:24:21.731Z,1016.96
2019-03-30T06:25:21.712Z,1016.96
2019-03-30T06:26:21.706Z,1016.96
2019-03-30T06:27:21.690Z,1016.94
2019-03-30T06:28:21.706Z,1016.94
2019-03-30T06:29:21.670Z,1016.95
2019-03-30T06:30:21.667Z,1016.93
2019-03-30T06:31:21.651Z,1016.93
2019-03-30T06:32:21.638Z,1016.91
2019-03-30T06:33:21.655Z,1016.90
2019-03-30T06:34:21.615Z,1016.93
2019-03-30T06:35:21.603Z,1016.90
2019-03-30T06:36:21.599Z,1016.98
2019-03-30T06:37:21.581Z,1016.95
2019-03-30T06:38:21.592Z,1016.94
2019-03-30T06:39:21.564Z,1016.91
2019-03-30T06:40:21.547Z,1016.91
2019-03-30T06:41:21.539Z,1016.92
2019-03-30T06:42:21.527Z,1016.94
2019-03-30T06:43:21.539Z,1016.93
2019-03-30T06:44:21.511Z,1016.94
2019-03-30T06:45:21.489Z,1016.95
2019-03-30T06:46:21.479Z,1016.96
2019-03-30T06:47:21.472Z,1016.97
2019-03-30T06:48:21.480Z,1016.96
2019-03-30T06:49:21.457Z,1016.95
2019-03-30T06:50:21.489Z,1016.95
2019-03-30T06:51:21.421Z,1016.98
2019-03-30T06:52:21.413Z,1016.90
2019-03-30T06:53:21.423Z,1016.92
2019-03-30T06:54:21.388Z,1016.91
2019-03-30T06:55:21.375Z,1016.89
2019-03-30T06:56:21.365Z,1016.90
2019-03-30T06:57:21.352Z,1016.86
2019-03-30T06:58:21.374Z,1016.89
2019-03-30T06:59:21.330Z,1016.92
2019-03-30T07:00:21.325Z,1016.93
2019-03-30T07:01:21.309Z,1016.92
2019-03-30T07:02:21.307Z,1016.94
2019-03-30T07:03:21.334Z,1016.96
2019-03-30T07:04:21.283Z,1016.95
2019-03-30T07:05:21.263Z,1016.96
2019-03-30T07:06:21.261Z,1016.99
2019-03-30T07:07:21.240Z,1016.97
2019-03-30T07:08:21.228Z,1016.96
2019-03-30T07:09:21.278Z,1016.94
2019-03-30T07:10:21.207Z,1016.96
2019-03-30T07:11:21.607Z,1016.96
2019-03-30T07:12:21.187Z,1016.93
2019-03-30T07:13:21.175Z,1016.95
2019-03-30T07:14:21.191Z,1016.91
2019-03-30T07:15:21.165Z,1016.96
2019-03-30T07:16:21.139Z,1016.91
2019-03-30T07:17:21.237Z,1016.96
2019-03-30T07:18:21.116Z,1016.90
2019-03-30T07:19:21.134Z,1016.86
2019-03-30T07:20:21.103Z,1016.88
2019-03-30T07:21:21.082Z,1016.86
2019-03-30T07:22:21.070Z,1016.83
2019-03-30T07:23:21.059Z,1016.82
2019-03-30T07:24:21.074Z,1016.83
2019-03-30T07:25:21.049Z,1016.82
2019-03-30T07:26:21.029Z,1016.81
2019-03-30T07:27:21.023Z,1016.78
2019-03-30T07:28:21.007Z,1016.82
2019-03-30T07:29:21.023Z,1016.86
2019-03-30T07:30:20.981Z,1016.81
2019-03-30T07:31:20.973Z,1016.80
2019-03-30T07:32:20.962Z,1016.79
2019-03-30T07:33:20.955Z,1016.74
2019-03-30T07:34:20.963Z,1016.73
2019-03-30T07:35:20.929Z,1016.69
2019-03-30T07:36:20.921Z,1016.71
2019-03-30T07:37:20.902Z,1016.69
2019-03-30T07:38:20.900Z,1016.71
2019-03-30T07:39:20.934Z,1016.72
2019-03-30T07:40:20.868Z,1016.73
2019-03-30T07:41:20.855Z,1016.72
2019-03-30T07:42:20.845Z,1016.76
2019-03-30T07:43:20.834Z,1016.74
2019-03-30T07:44:20.850Z,1016.75
2019-03-30T07:45:20.817Z,1016.69
2019-03-30T07:46:20.806Z,1016.73
2019-03-30T07:47:20.802Z,1016.70
2019-03-30T07:48:20.782Z,1016.75
2019-03-30T07:49:20.796Z,1016.67
2019-03-30T07:50:20.762Z,1016.62
2019-03-30T07:51:20.761Z,1016.62
2019-03-30T07:52:20.733Z,1016.63
2019-03-30T07:53:26.772Z,1016.56
2019-03-30T07:54:21.712Z,1016.61
2019-03-30T07:55:20.727Z,1016.69
2019-03-30T07:56:20.688Z,1016.78
2019-03-30T07:57:20.683Z,1016.73
2019-03-30T07:58:20.664Z,1016.73
2019-03-30T07:59:20.655Z,1016.66
2019-03-30T08:00:20.667Z,1016.61
2019-03-30T08:01:20.632Z,1016.62
2019-03-30T08:02:20.621Z,1016.65
2019-03-30T08:03:20.610Z,1016.66
2019-03-30T08:04:20.604Z,1016.66
2019-03-30T08:05:20.612Z,1016.67
2019-03-30T08:06:20.573Z,1016.66
2019-03-30T08:07:20.562Z,1016.65
2019-03-30T08:08:20.552Z,1016.67
2019-03-30T08:09:20.543Z,1016.67
2019-03-30T08:10:20.559Z,1016.66
2019-03-30T08:11:20.523Z,1016.67
2019-03-30T08:12:20.509Z,1016.66
2019-03-30T08:13:20.496Z,1016.71
2019-03-30T08:14:20.485Z,1016.72
2019-03-30T08:15:20.500Z,1016.72
2019-03-30T08:16:20.462Z,1016.77
2019-03-30T08:17:20.451Z,1016.70
2019-03-30T08:18:20.450Z,1016.74
2019-03-30T08:19:21.965Z,1016.78
2019-03-30T08:20:20.441Z,1016.81
2019-03-30T08:21:20.405Z,1016.74
2019-03-30T08:22:20.395Z,1016.78
2019-03-30T08:23:20.383Z,1016.79
2019-03-30T08:24:20.372Z,1016.78
2019-03-30T08:25:20.418Z,1016.85
2019-03-30T08:26:20.412Z,1016.81
2019-03-30T08:27:20.365Z,1016.82
2019-03-30T08:28:20.325Z,1016.81
2019-03-30T08:29:20.327Z,1016.83
2019-03-30T08:30:20.332Z,1016.80
2019-03-30T08:31:20.293Z,1016.79
2019-03-30T08:32:20.281Z,1016.76
2019-03-30T08:33:20.280Z,1016.78
2019-03-30T08:34:20.260Z,1016.74
2019-03-30T08:35:20.278Z,1016.73
2019-03-30T08:36:20.235Z,1016.74
2019-03-30T08:37:20.230Z,1016.70
2019-03-30T08:38:20.215Z,1016.73
2019-03-30T08:39:20.201Z,1016.71
2019-03-30T08:40:20.216Z,1016.70
2019-03-30T08:41:20.193Z,1016.71
2019-03-30T08:42:20.167Z,1016.68
2019-03-30T08:43:20.165Z,1016.71
2019-03-30T08:44:20.144Z,1016.69
2019-03-30T08:45:20.158Z,1016.70
2019-03-30T08:46:20.131Z,1016.66
2019-03-30T08:47:20.115Z,1016.62
2019-03-30T08:48:20.104Z,1016.61
2019-03-30T08:49:20.089Z,1016.58
2019-03-30T08:50:20.104Z,1016.58
2019-03-30T08:51:20.963Z,1016.57
2019-03-30T08:52:20.055Z,1016.62
2019-03-30T08:53:20.057Z,1016.56
2019-03-30T08:54:20.032Z,1016.59
2019-03-30T08:55:20.044Z,1016.62
2019-03-30T08:56:20.011Z,1016.60
2019-03-30T08:57:19.997Z,1016.61
2019-03-30T08:58:19.992Z,1016.60
2019-03-30T08:59:19.980Z,1016.59
2019-03-30T09:00:19.992Z,1016.60
2019-03-30T09:01:19.956Z,1016.62
2019-03-30T09:02:19.946Z,1016.56
2019-03-30T09:03:19.940Z,1016.61
2019-03-30T09:04:19.923Z,1016.57
2019-03-30T09:05:19.912Z,1016.59
2019-03-30T09:06:19.978Z,1016.53
2019-03-30T09:07:19.884Z,1016.56
2019-03-30T09:08:19.875Z,1016.52
2019-03-30T09:09:19.866Z,1016.56
2019-03-30T09:10:19.875Z,1016.56
2019-03-30T09:11:19.840Z,1016.48
2019-03-30T09:12:19.851Z,1016.50
2019-03-30T09:13:19.822Z,1016.50
2019-03-30T09:14:19.806Z,1016.49
2019-03-30T09:15:19.804Z,1016.47
2019-03-30T09:16:19.812Z,1016.46
2019-03-30T09:17:19.773Z,1016.45
2019-03-30T09:18:19.763Z,1016.49
2019-03-30T09:19:19.759Z,1016.45
2019-03-30T09:20:19.745Z,1016.45
2019-03-30T09:21:19.753Z,1016.42
2019-03-30T09:22:19.716Z,1016.40
2019-03-30T09:23:19.703Z,1016.40
2019-03-30T09:24:19.692Z,1016.36
2019-03-30T09:25:19.768Z,1016.41
2019-03-30T09:26:19.677Z,1016.35
2019-03-30T09:27:19.669Z,1016.34
2019-03-30T09:28:19.646Z,1016.32
2019-03-30T09:29:19.650Z,1016.34
2019-03-30T09:30:19.663Z,1016.32
2019-03-30T09:31:19.658Z,1016.35
2019-03-30T09:32:19.602Z,1016.29
2019-03-30T09:33:19.596Z,1016.31
2019-03-30T09:34:19.591Z,1016.29
2019-03-30T09:35:19.571Z,1016.29
2019-03-30T09:36:19.580Z,1016.32
2019-03-30T09:37:19.553Z,1016.30
2019-03-30T09:38:19.534Z,1016.27
2019-03-30T09:39:19.520Z,1016.25
2019-03-30T09:40:19.516Z,1016.22
2019-03-30T09:41:19.527Z,1016.29
2019-03-30T09:42:19.490Z,1016.25
2019-03-30T09:43:19.478Z,1016.19
2019-03-30T09:44:19.466Z,1016.20
2019-03-30T09:45:19.453Z,1016.17
2019-03-30T09:46:19.467Z,1016.13
2019-03-30T09:47:19.431Z,1016.13
2019-03-30T09:48:19.435Z,1016.13
2019-03-30T09:49:19.410Z,1016.10
2019-03-30T09:50:19.398Z,1016.04
2019-03-30T09:51:19.410Z,1016.08
2019-03-30T09:52:19.386Z,1016.09
2019-03-30T09:53:19.366Z,1016.02
2019-03-30T09:54:23.828Z,1016.04
2019-03-30T09:55:19.350Z,1016.00
2019-03-30T09:56:19.369Z,1016.04
2019-03-30T09:57:19.326Z,1016.03
2019-03-30T09:58:19.305Z,1016.04
2019-03-30T09:59:19.295Z,1016.01
2019-03-30T10:00:19.295Z,1016.00
2019-03-30T10:01:19.298Z,1016.01
2019-03-30T10:02:19.265Z,1015.96
2019-03-30T10:03:19.255Z,1016.03
2019-03-30T10:04:19.268Z,1016.02
2019-03-30T10:05:19.232Z,1016.01
2019-03-30T10:06:19.244Z,1016.03
2019-03-30T10:07:19.206Z,1015.93
2019-03-30T10:08:19.194Z,1015.92
2019-03-30T10:09:19.182Z,1015.95
2019-03-30T10:10:19.182Z,1015.93
2019-03-30T10:11:19.209Z,1015.96
2019-03-30T10:12:19.149Z,1015.96
2019-03-30T10:13:19.144Z,1015.92
2019-03-30T10:14:19.127Z,1015.92
2019-03-30T10:15:19.113Z,1015.90
2019-03-30T10:16:19.127Z,1015.88
2019-03-30T10:17:19.092Z,1015.87
2019-03-30T10:18:19.100Z,1015.86
2019-03-30T10:19:19.070Z,1015.86
2019-03-30T10:20:19.063Z,1015.83
2019-03-30T10:21:19.070Z,1015.85
2019-03-30T10:22:19.037Z,1015.88
2019-03-30T10:23:19.033Z,1015.83
2019-03-30T10:24:19.027Z,1015.81
2019-03-30T10:25:19.003Z,1015.84
2019-03-30T10:26:19.035Z,1015.88
2019-03-30T10:27:18.979Z,1015.83
2019-03-30T10:28:18.977Z,1015.86
2019-03-30T10:29:18.966Z,1015.82
2019-03-30T10:30:18.949Z,1015.85
2019-03-30T10:31:18.961Z,1015.82
2019-03-30T10:32:18.921Z,1015.82
2019-03-30T10:33:18.912Z,1015.83
2019-03-30T10:34:18.903Z,1015.78
2019-03-30T10:35:18.897Z,1015.73
2019-03-30T10:36:18.878Z,1015.70
2019-03-30T10:37:18.890Z,1015.72
2019-03-30T10:38:18.859Z,1015.69
2019-03-30T10:39:18.872Z,1015.66
2019-03-30T10:40:20.873Z,1015.66
2019-03-30T10:41:18.823Z,1015.61
2019-03-30T10:42:18.868Z,1015.62
2019-03-30T10:43:18.799Z,1015.62
2019-03-30T10:44:18.787Z,1015.60
2019-03-30T10:45:18.803Z,1015.65
2019-03-30T10:46:18.766Z,1015.59
2019-03-30T10:47:18.783Z,1015.63
2019-03-30T10:48:18.739Z,1015.60
2019-03-30T10:49:18.731Z,1015.59
2019-03-30T10:50:18.756Z,1015.59
2019-03-30T10:51:18.707Z,1015.52
2019-03-30T10:52:18.720Z,1015.58
2019-03-30T10:53:18.689Z,1015.56
2019-03-30T10:54:18.673Z,1015.51
2019-03-30T10:55:18.663Z,1015.54
2019-03-30T10:56:18.650Z,1015.51
2019-03-30T10:57:18.668Z,1015.46
2019-03-30T10:58:18.627Z,1015.45
2019-03-30T10:59:18.652Z,1015.40
2019-03-30T11:00:18.608Z,1015.44
2019-03-30T11:01:18.596Z,1015.46
2019-03-30T11:02:18.608Z,1015.37
2019-03-30T11:03:18.574Z,1015.46
2019-03-30T11:04:18.574Z,1015.39
2019-03-30T11:05:18.553Z,1015.42
2019-03-30T11:06:18.536Z,1015.41
2019-03-30T11:07:18.598Z,1015.41
2019-03-30T11:08:18.517Z,1015.46
2019-03-30T11:09:18.504Z,1015.40
2019-03-30T11:10:18.493Z,1015.32
2019-03-30T11:11:18.481Z,1015.37
2019-03-30T11:12:18.503Z,1015.32
2019-03-30T11:13:18.459Z,1015.27
2019-03-30T11:14:18.455Z,1015.32
2019-03-30T11:15:18.441Z,1015.23
2019-03-30T11:16:18.425Z,1015.30
2019-03-30T11:17:19.450Z,1015.30
2019-03-30T11:18:18.407Z,1015.30
2019-03-30T11:19:18.391Z,1015.33
2019-03-30T11:20:18.383Z,1015.30
2019-03-30T11:21:18.399Z,1015.28
2019-03-30T11:22:18.389Z,1015.36
2019-03-30T11:23:18.349Z,1015.33
2019-03-30T11:24:18.348Z,1015.33
2019-03-30T11:25:18.323Z,1015.32
2019-03-30T11:26:18.314Z,1015.28
2019-03-30T11:27:18.324Z,1015.36
2019-03-30T11:28:18.290Z,1015.25
2019-03-30T11:29:18.279Z,1015.23
2019-03-30T11:30:18.301Z,1015.21
2019-03-30T11:31:18.259Z,1015.22
2019-03-30T11:32:18.296Z,1015.18
2019-03-30T11:33:18.232Z,1015.14
2019-03-30T11:34:18.222Z,1015.17
2019-03-30T11:35:18.210Z,1015.21
2019-03-30T11:36:18.702Z,1015.18
2019-03-30T11:37:18.221Z,1015.16
2019-03-30T11:38:18.181Z,1015.12
2019-03-30T11:39:18.166Z,1015.14
2019-03-30T11:40:18.154Z,1015.06
2019-03-30T11:41:18.154Z,1015.11
2019-03-30T11:42:18.133Z,1015.16
2019-03-30T11:43:18.147Z,1015.14
2019-03-30T11:44:18.117Z,1015.16
2019-03-30T11:45:18.098Z,1015.10
2019-03-30T11:46:18.085Z,1015.15
2019-03-30T11:47:18.152Z,1015.05
2019-03-30T11:48:18.063Z,1015.02
2019-03-30T11:49:18.056Z,1015.04
2019-03-30T11:50:18.070Z,1014.96
2019-03-30T11:51:18.029Z,1014.99
2019-03-30T11:52:18.021Z,1014.95
2019-03-30T11:53:18.039Z,1014.97
2019-03-30T11:54:18.003Z,1014.97
2019-03-30T11:55:22.029Z,1014.89
2019-03-30T11:56:17.975Z,1014.90
2019-03-30T11:57:17.969Z,1014.87
2019-03-30T11:58:17.994Z,1014.87
2019-03-30T11:59:17.939Z,1014.89
2019-03-30T12:00:17.930Z,1014.87
2019-03-30T12:01:17.919Z,1014.93
2019-03-30T12:02:27.767Z,1014.88
2019-03-30T12:03:18.922Z,1014.83
2019-03-30T12:04:17.916Z,1014.77
2019-03-30T12:05:17.876Z,1014.77